Time;durP1;ratioP1;P1;durP2;ratioP2;P2;SDS_P1;SDS_P2;PMS_P1;PMS_P2;Temp;Humidity;BMP_temperature;BMP_pressure;BME280_temperature;BME280_humidity;BME280_pressure;Samples;Min_cycle;Max_cycle;Signal;HPM_P1;HPM_P2
2021/09/18 00:01:18;;;;;;;10.52;9.52;;;;;;;24.39;47.71;98888.63;5094797;28;20161;-76
2021/09/18 00:03:43;;;;;;;13.82;10.50;;;;;;;24.53;47.57;98911.19;5094734;28;20053;-77
2021/09/18 00:06:09;;;;;;;13.25;10.40;;;;;;;24.35;47.44;98888.41;5093402;28;20389;-76
2021/09/18 00:08:35;;;;;;;15.00;9.95;;;;;;;24.67;47.82;98943.72;5094774;28;20031;-76
2021/09/18 00:11:00;;;;;;;13.75;10.43;;;;;;;24.85;47.83;98974.59;5094666;28;20100;-78
2021/09/18 00:13:26;;;;;;;14.07;10.05;;;;;;;24.43;47.72;98903.16;5094865;28;20032;-77
2021/09/18 00:15:51;;;;;;;11.50;10.27;;;;;;;24.60;47.77;98941.34;5094770;28;20098;-77
2021/09/18 00:18:17;;;;;;;13.55;10.10;;;;;;;24.82;47.91;98970.56;5094584;28;20032;-77
2021/09/18 00:20:42;;;;;;;15.45;10.70;;;;;;;24.41;47.73;98913.44;5094384;28;20028;-77
2021/09/18 00:23:08;;;;;;;17.00;10.85;;;;;;;24.45;47.75;98919.88;5094563;28;20023;-77
2021/09/18 00:25:33;;;;;;;16.92;11.25;;;;;;;24.66;47.95;98948.31;5093225;28;20028;-77
2021/09/18 00:27:58;;;;;;;13.73;10.48;;;;;;;24.74;47.95;98981.19;5094416;28;20488;-76
2021/09/18 00:30:24;;;;;;;17.33;11.15;;;;;;;24.69;47.74;98977.44;5094260;28;20488;-76
2021/09/18 00:32:49;;;;;;;15.23;10.93;;;;;;;24.29;48.36;98923.81;5094136;28;20038;-77
2021/09/18 00:35:15;;;;;;;13.18;10.75;;;;;;;24.14;48.04;98905.81;5094500;28;20416;-77
2021/09/18 00:37:41;;;;;;;14.40;11.25;;;;;;;24.26;48.17;98937.81;5094547;28;20027;-77
2021/09/18 00:40:08;;;;;;;14.18;11.13;;;;;;;24.60;48.40;98994.53;5094119;28;20024;-76
2021/09/18 00:42:33;;;;;;;15.15;10.98;;;;;;;24.16;48.45;98938.72;5094231;28;20035;-77
2021/09/18 00:45:00;;;;;;;12.32;11.05;;;;;;;24.40;48.32;98984.69;5094093;28;20020;-77
2021/09/18 00:47:25;;;;;;;12.82;10.93;;;;;;;23.97;48.52;98937.78;5094068;28;20020;-77
2021/09/18 00:49:51;;;;;;;13.00;10.77;;;;;;;24.39;48.26;99002.78;5094031;28;20022;-78
2021/09/18 00:52:19;;;;;;;13.55;11.43;;;;;;;24.23;48.39;98990.44;5094051;28;20019;-77
2021/09/18 00:54:47;;;;;;;15.02;11.00;;;;;;;24.34;48.55;99004.69;5093232;28;20016;-76
2021/09/18 00:57:12;;;;;;;12.27;10.10;;;;;;;24.11;48.36;98979.22;5092573;28;20472;-76
2021/09/18 00:59:38;;;;;;;12.27;10.98;;;;;;;23.96;48.63;98952.34;5094148;28;20095;-76
2021/09/18 01:02:03;;;;;;;15.63;11.13;;;;;;;23.84;48.65;98952.69;5093974;28;20029;-77
2021/09/18 01:04:28;;;;;;;11.73;10.43;;;;;;;23.68;48.63;98943.84;5093945;28;20447;-77
2021/09/18 01:06:54;;;;;;;11.63;10.45;;;;;;;24.01;48.82;98982.78;5093938;28;20024;-76
2021/09/18 01:09:20;;;;;;;12.93;10.88;;;;;;;23.71;48.61;98953.28;5093776;28;20024;-76
2021/09/18 01:11:46;;;;;;;12.57;10.63;;;;;;;23.74;48.44;98967.00;5092499;28;20027;-76
2021/09/18 01:14:11;;;;;;;11.93;10.63;;;;;;;23.27;48.52;98908.19;5093779;28;20020;-76
2021/09/18 01:16:37;;;;;;;12.20;10.98;;;;;;;23.85;48.44;98997.44;5093554;28;20024;-76
2021/09/18 01:19:02;;;;;;;12.30;11.10;;;;;;;24.00;48.54;99020.81;5093632;28;20504;-76
2021/09/18 01:21:28;;;;;;;16.55;11.13;;;;;;;23.62;48.51;98974.59;5093320;28;20020;-76
2021/09/18 01:23:54;;;;;;;14.80;10.13;;;;;;;23.48;48.28;98940.44;5093514;28;20031;-76
2021/09/18 01:26:38;;;;;;;14.50;10.93;;;;;;;23.65;48.45;98974.06;5093433;28;20016;-76
2021/09/18 01:29:05;;;;;;;15.52;10.95;;;;;;;23.61;48.59;98977.59;5093695;28;20514;-76
2021/09/18 01:31:36;;;;;;;14.98;10.32;;;;;;;23.90;48.54;99008.19;5093529;28;20056;-76
2021/09/18 01:34:01;;;;;;;15.15;10.95;;;;;;;23.42;48.62;98934.25;5091960;28;20024;-76
2021/09/18 01:36:26;;;;;;;20.13;11.00;;;;;;;23.45;48.59;98950.69;5093079;28;20047;-76
2021/09/18 01:38:52;;;;;;;15.30;10.60;;;;;;;23.92;48.68;99005.22;5093192;28;20024;-76
2021/09/18 01:41:17;;;;;;;16.15;10.45;;;;;;;23.90;48.86;99002.81;5093270;28;20025;-76
2021/09/18 01:43:43;;;;;;;14.50;10.57;;;;;;;23.43;48.64;98933.97;5091846;28;20111;-76
2021/09/18 01:46:09;;;;;;;15.77;10.57;;;;;;;23.61;48.70;98947.94;5091669;28;20028;-76
2021/09/18 01:48:35;;;;;;;15.48;10.90;;;;;;;23.62;48.63;98949.56;5093022;28;20028;-76
2021/09/18 01:51:01;;;;;;;17.10;10.00;;;;;;;23.74;48.43;98982.38;5092821;28;20031;-76
2021/09/18 01:53:30;;;;;;;14.32;10.98;;;;;;;23.92;48.46;98999.81;5093039;28;20012;-76
2021/09/18 01:55:56;;;;;;;14.80;9.90;;;;;;;23.68;48.37;98940.34;5093101;28;20024;-76
2021/09/18 01:58:23;;;;;;;18.27;10.35;;;;;;;23.87;48.38;98973.69;5092949;28;20484;-77
2021/09/18 02:00:50;;;;;;;14.88;10.10;;;;;;;23.85;48.69;98975.06;5092565;28;20055;-77
2021/09/18 02:03:16;;;;;;;16.38;10.30;;;;;;;23.57;48.69;98936.09;5092707;28;20111;-77
2021/09/18 02:05:42;;;;;;;14.38;10.30;;;;;;;23.56;48.86;98942.56;5092301;28;20038;-76
2021/09/18 02:08:08;;;;;;;14.07;10.23;;;;;;;23.31;48.82;98914.63;5091979;28;20016;-76
2021/09/18 02:10:33;;;;;;;18.40;11.73;;;;;;;23.27;48.57;98905.50;5092276;28;20389;-77
2021/09/18 02:13:01;;;;;;;17.15;11.10;;;;;;;23.76;48.58;98974.81;5092352;28;20027;-77
2021/09/18 02:15:27;;;;;;;16.40;11.35;;;;;;;23.72;49.01;98979.13;5092630;28;20527;-76
2021/09/18 02:17:54;;;;;;;15.23;10.25;;;;;;;23.72;48.92;98984.53;5092304;28;20032;-76
2021/09/18 02:20:22;;;;;;;15.30;10.57;;;;;;;23.42;48.90;98943.16;5092224;28;20024;-77
2021/09/18 02:22:48;;;;;;;16.23;10.77;;;;;;;23.65;49.03;98989.41;5092383;28;20062;-77
2021/09/18 02:25:15;;;;;;;15.43;10.55;;;;;;;23.65;48.95;98994.81;5092133;28;20048;-76
2021/09/18 02:27:41;;;;;;;17.50;11.45;;;;;;;23.67;49.03;98992.66;5092175;28;20024;-76
2021/09/18 02:30:09;;;;;;;15.13;10.90;;;;;;;23.58;49.15;98991.59;5092193;28;20085;-77
2021/09/18 02:32:35;;;;;;;16.45;10.90;;;;;;;23.66;48.88;99007.22;5092056;28;20517;-76
2021/09/18 02:35:12;;;;;;;19.17;10.60;;;;;;;23.26;48.81;98952.38;5092151;28;20043;-77
2021/09/18 02:37:38;;;;;;;14.82;10.07;;;;;;;23.67;48.90;99022.28;5092234;28;20016;-76
2021/09/18 02:40:06;;;;;;;14.70;10.55;;;;;;;23.68;48.65;99015.81;5091816;28;20507;-76
2021/09/18 02:42:31;;;;;;;17.85;11.15;;;;;;;23.63;48.72;99018.53;5091872;28;20149;-76
2021/09/18 02:44:57;;;;;;;15.15;10.10;;;;;;;23.13;48.69;98945.69;5091834;28;20107;-77
2021/09/18 02:47:22;;;;;;;18.80;11.70;;;;;;;23.32;48.57;99001.66;5090536;28;20027;-77
2021/09/18 02:49:48;;;;;;;14.38;9.65;;;;;;;23.27;48.42;98986.31;5092108;28;20067;-77
2021/09/18 02:52:13;;;;;;;14.77;10.32;;;;;;;23.02;48.27;98952.16;5091833;28;20028;-76
2021/09/18 02:54:39;;;;;;;14.80;10.23;;;;;;;23.24;48.34;98994.13;5090425;28;20016;-76
2021/09/18 02:57:04;;;;;;;16.52;10.70;;;;;;;22.88;48.44;98950.31;5091647;28;20024;-77
2021/09/18 02:59:30;;;;;;;17.90;10.48;;;;;;;23.22;48.39;99007.06;5091904;28;20397;-77
2021/09/18 03:01:55;;;;;;;16.75;10.70;;;;;;;23.05;48.53;98977.75;5091619;28;20013;-77
2021/09/18 03:04:21;;;;;;;17.02;11.20;;;;;;;22.75;48.40;98944.38;5091445;28;20485;-77
2021/09/18 03:06:46;;;;;;;15.63;11.18;;;;;;;23.08;48.49;98996.06;5091473;28;20556;-77
2021/09/18 03:09:11;;;;;;;14.65;10.60;;;;;;;22.60;48.68;98924.75;5091341;28;20028;-77
2021/09/18 03:11:37;;;;;;;15.20;10.63;;;;;;;23.05;48.70;98989.34;5091439;28;20488;-76
2021/09/18 03:14:02;;;;;;;14.85;10.98;;;;;;;22.96;48.76;98977.47;5091529;28;20030;-77
2021/09/18 03:16:28;;;;;;;13.88;11.18;;;;;;;23.07;48.84;99002.53;5090050;28;20024;-76
2021/09/18 03:18:53;;;;;;;15.23;10.30;;;;;;;22.69;48.60;98950.84;5091111;28;20016;-77
2021/09/18 03:21:19;;;;;;;17.40;10.88;;;;;;;22.81;48.53;98959.47;5091391;28;20458;-76
2021/09/18 03:23:44;;;;;;;14.45;10.18;;;;;;;22.55;48.56;98930.16;5091518;28;20020;-77
2021/09/18 03:26:09;;;;;;;17.42;9.40;;;;;;;22.60;48.68;98948.97;5091549;28;20112;-77
2021/09/18 03:28:35;;;;;;;16.30;10.38;;;;;;;22.49;48.54;98922.09;5091566;28;20035;-77
2021/09/18 03:31:00;;;;;;;16.90;10.02;;;;;;;23.00;48.58;99000.09;5091282;28;20077;-76
2021/09/18 03:33:26;;;;;;;16.88;10.18;;;;;;;22.98;48.46;99004.13;5090055;28;20085;-76
2021/09/18 03:35:51;;;;;;;15.50;10.68;;;;;;;22.78;48.58;98975.31;5091333;28;20020;-76
2021/09/18 03:38:18;;;;;;;16.73;10.68;;;;;;;22.62;48.57;98961.09;5091437;28;20024;-76
2021/09/18 03:40:44;;;;;;;14.50;9.85;;;;;;;22.67;48.76;98974.53;5091215;28;20028;-77
2021/09/18 03:43:09;;;;;;;19.98;11.02;;;;;;;22.91;48.67;99014.38;5091250;28;20035;-78
2021/09/18 03:45:35;;;;;;;14.27;10.40;;;;;;;22.18;48.69;98905.13;5091107;28;20032;-77
2021/09/18 03:48:01;;;;;;;14.88;10.27;;;;;;;22.43;48.69;98941.19;5091284;28;20016;-77
2021/09/18 03:50:27;;;;;;;13.07;9.77;;;;;;;22.61;48.54;98983.69;5091279;28;20068;-77
2021/09/18 03:52:52;;;;;;;13.77;11.15;;;;;;;22.76;48.79;99017.84;5091209;28;20024;-76
2021/09/18 03:55:17;;;;;;;16.73;10.93;;;;;;;22.17;48.87;98945.72;5091035;28;20458;-76
2021/09/18 03:57:43;;;;;;;18.35;10.93;;;;;;;22.33;49.17;99005.75;5090826;28;20094;-77
2021/09/18 04:00:09;;;;;;;17.25;10.98;;;;;;;22.47;49.21;99020.28;5090826;28;20031;-76
2021/09/18 04:02:34;;;;;;;15.73;10.55;;;;;;;21.92;49.37;98940.31;5090992;28;20047;-77
2021/09/18 04:05:00;;;;;;;19.65;10.60;;;;;;;22.37;49.38;98988.81;5090975;28;20088;-77
2021/09/18 04:07:25;;;;;;;23.13;11.38;;;;;;;21.95;49.09;98907.50;5090881;28;20024;-76
2021/09/18 04:09:51;;;;;;;18.88;11.30;;;;;;;22.56;49.11;99002.53;5090877;28;20020;-77
2021/09/18 04:12:17;;;;;;;16.92;11.23;;;;;;;22.62;49.12;99006.03;5090867;28;20024;-77
2021/09/18 04:14:42;;;;;;;20.58;11.57;;;;;;;22.15;49.09;98946.00;5090832;28;20024;-76
2021/09/18 04:17:08;;;;;;;20.00;10.93;;;;;;;22.28;49.09;98976.13;5090603;28;20020;-77
2021/09/18 04:19:33;;;;;;;20.35;10.73;;;;;;;22.14;49.12;98959.72;5090746;28;20401;-76
2021/09/18 04:21:58;;;;;;;24.38;11.70;;;;;;;22.14;49.37;98955.13;5090792;28;20024;-76
2021/09/18 04:24:24;;;;;;;21.20;11.73;;;;;;;21.96;49.39;98918.00;5090876;28;20028;-82
2021/09/18 04:26:49;;;;;;;20.85;11.60;;;;;;;22.39;49.28;98983.97;5091100;28;20408;-83
2021/09/18 04:29:15;;;;;;;16.20;11.40;;;;;;;22.10;49.37;98921.00;5090859;28;20024;-82
2021/09/18 04:31:41;;;;;;;15.85;11.50;;;;;;;22.14;49.12;98916.69;5094405;28;20058;-83
2021/09/18 04:34:07;;;;;;;18.92;11.48;;;;;;;22.33;49.14;98946.56;5094514;28;20492;-83
2021/09/18 04:36:33;;;;;;;18.38;11.13;;;;;;;22.19;49.14;98927.44;5094222;28;20024;-83
2021/09/18 04:38:58;;;;;;;17.90;12.20;;;;;;;22.66;49.25;98980.19;5094291;28;20025;-83
2021/09/18 04:41:26;;;;;;;19.83;12.02;;;;;;;22.68;49.04;98986.09;5094118;28;20477;-83
2021/09/18 04:43:52;;;;;;;20.45;11.25;;;;;;;22.71;49.02;98980.19;5094117;28;20028;-83
2021/09/18 04:46:17;;;;;;;19.45;12.68;;;;;;;22.32;49.05;98918.06;5094207;28;20028;-83
2021/09/18 04:48:43;;;;;;;13.77;11.65;;;;;;;22.71;49.01;98983.69;5094200;28;20020;-83
2021/09/18 04:51:08;;;;;;;18.83;12.98;;;;;;;22.68;48.84;98973.47;5094099;28;20439;-83
2021/09/18 04:53:33;;;;;;;21.15;12.23;;;;;;;22.13;49.08;98898.94;5093949;28;20024;-83
2021/09/18 04:55:59;;;;;;;18.10;11.68;;;;;;;22.70;49.00;98973.19;5094114;28;20012;-83
2021/09/18 04:58:24;;;;;;;18.42;11.20;;;;;;;22.29;48.81;98919.38;5094175;28;20405;-83
2021/09/18 05:00:50;;;;;;;19.50;11.80;;;;;;;22.71;48.93;98990.94;5093796;28;20416;-83
2021/09/18 05:03:15;;;;;;;16.55;11.35;;;;;;;22.26;48.86;98924.50;5093736;28;20484;-83
2021/09/18 05:05:40;;;;;;;18.65;11.70;;;;;;;22.34;48.96;98942.81;5093769;28;20032;-82
2021/09/18 05:08:06;;;;;;;18.45;10.85;;;;;;;22.39;48.80;98940.94;5092470;28;20020;-83
2021/09/18 05:10:31;;;;;;;18.05;10.85;;;;;;;22.74;48.79;98993.09;5093856;28;20016;-83
2021/09/18 05:12:57;;;;;;;16.77;11.38;;;;;;;22.40;48.86;98947.09;5093783;28;20028;-83
2021/09/18 05:15:23;;;;;;;16.67;10.90;;;;;;;22.68;48.74;99008.44;5093758;28;20031;-83
2021/09/18 05:17:48;;;;;;;18.73;11.15;;;;;;;22.67;48.85;99001.44;5092364;28;20059;-83
2021/09/18 05:20:14;;;;;;;20.70;11.48;;;;;;;22.67;48.95;98993.38;5093467;28;20020;-83
2021/09/18 05:22:39;;;;;;;17.95;12.07;;;;;;;22.54;48.95;98971.59;5093548;28;20567;-83
2021/09/18 05:25:06;;;;;;;19.35;11.70;;;;;;;21.95;48.80;98864.50;5092373;28;20024;-83
2021/09/18 05:27:31;;;;;;;21.40;11.65;;;;;;;22.73;48.62;98970.75;5093473;28;20099;-83
2021/09/18 05:29:57;;;;;;;15.95;10.25;;;;;;;22.95;48.77;98999.28;5093431;28;20058;-83
2021/09/18 05:32:22;;;;;;;24.05;11.88;;;;;;;22.61;48.80;98942.53;5093153;28;20024;-83
2021/09/18 05:34:48;;;;;;;22.02;12.65;;;;;;;22.76;48.53;98969.41;5091770;28;20024;-83
2021/09/18 05:37:13;;;;;;;21.13;12.63;;;;;;;22.98;48.65;98985.28;5093133;28;20055;-83
2021/09/18 05:39:38;;;;;;;21.45;12.55;;;;;;;22.45;48.56;98891.41;5091918;28;20073;-83
2021/09/18 05:42:05;;;;;;;21.13;13.27;;;;;;;22.95;48.46;98962.41;5092925;28;20028;-83
2021/09/18 05:44:30;;;;;;;21.75;12.02;;;;;;;22.88;48.42;98945.72;5093022;28;20028;-83
2021/09/18 05:46:56;;;;;;;23.80;13.30;;;;;;;22.98;48.44;98942.19;5092973;28;20031;-83
2021/09/18 05:49:21;;;;;;;24.05;13.65;;;;;;;23.29;48.25;98976.06;5092873;28;20028;-83
2021/09/18 05:51:47;;;;;;;26.23;14.82;;;;;;;23.10;48.12;98954.31;5092884;28;20720;-83
2021/09/18 05:54:12;;;;;;;16.92;13.98;;;;;;;22.98;48.05;98915.28;5092844;28;20058;-83
2021/09/18 05:56:37;;;;;;;25.13;13.88;;;;;;;23.58;48.02;98995.09;5091588;28;20049;-83
2021/09/18 05:59:03;;;;;;;27.23;14.68;;;;;;;23.49;47.85;98982.47;5092835;28;20081;-82
2021/09/18 06:01:29;;;;;;;25.25;15.38;;;;;;;23.29;48.05;98929.47;5092872;28;20323;-82
2021/09/18 06:03:55;;;;;;;19.40;13.63;;;;;;;23.44;48.15;98948.25;5092656;28;20103;-83
2021/09/18 06:06:20;;;;;;;20.25;14.35;;;;;;;23.22;48.27;98905.53;5092490;28;20127;-83
2021/09/18 06:08:46;;;;;;;21.02;14.60;;;;;;;23.61;48.25;98962.22;5091332;28;20572;-82
2021/09/18 06:11:11;;;;;;;25.95;14.98;;;;;;;23.51;48.17;98932.59;5093013;28;20121;-83
2021/09/18 06:13:37;;;;;;;24.30;15.05;;;;;;;23.68;47.89;98961.91;5092554;28;20607;-83
2021/09/18 06:16:03;;;;;;;25.92;16.05;;;;;;;23.73;47.93;98953.81;5091280;28;20031;-83
2021/09/18 06:18:28;;;;;;;28.35;15.25;;;;;;;23.82;47.69;98952.16;5092337;28;20416;-83
2021/09/18 06:20:54;;;;;;;22.90;14.77;;;;;;;23.76;47.62;98928.97;5092265;28;20023;-83
2021/09/18 06:23:20;;;;;;;23.25;14.50;;;;;;;24.23;47.40;99000.44;5092482;28;20094;-76
2021/09/18 06:25:45;;;;;;;25.63;13.82;;;;;;;23.94;47.50;98944.53;5092110;28;20050;-76
2021/09/18 06:28:11;;;;;;;25.08;15.23;;;;;;;24.24;47.30;98975.88;5090797;28;20026;-77
2021/09/18 06:30:36;;;;;;;31.50;15.32;;;;;;;23.99;47.32;98909.44;5092010;28;20020;-77
2021/09/18 06:33:02;;;;;;;20.60;13.30;;;;;;;24.69;47.24;99007.13;5090704;28;20032;-76
2021/09/18 06:35:27;;;;;;;23.25;14.18;;;;;;;24.37;47.39;98947.47;5092061;28;20474;-77
2021/09/18 06:37:53;;;;;;;22.05;14.05;;;;;;;24.80;46.87;99013.25;5092085;28;20095;-77
2021/09/18 06:40:19;;;;;;;23.02;14.98;;;;;;;24.86;46.95;99014.00;5091844;28;20050;-76
2021/09/18 06:42:46;;;;;;;22.58;13.90;;;;;;;25.12;46.76;99028.09;5091579;28;20073;-76
2021/09/18 06:45:13;;;;;;;23.40;15.88;;;;;;;25.21;46.75;99029.09;5092190;28;20450;-76
2021/09/18 06:47:38;;;;;;;21.17;13.20;;;;;;;24.85;46.68;98964.59;5091573;28;20028;-76
2021/09/18 06:50:05;;;;;;;22.38;14.25;;;;;;;25.37;46.12;99029.75;5091993;28;20089;-77
2021/09/18 06:52:31;;;;;;;21.27;11.85;;;;;;;25.46;45.58;99033.44;5091265;28;20062;-76
2021/09/18 06:54:56;;;;;;;19.40;8.88;;;;;;;25.53;44.65;99039.31;5091830;28;20024;-76
2021/09/18 06:57:22;;;;;;;22.65;8.20;;;;;;;25.54;44.02;99035.50;5091787;28;20487;-77
2021/09/18 06:59:48;;;;;;;16.88;8.05;;;;;;;25.46;43.91;99011.81;5091889;28;20563;-76
2021/09/18 11:33:49;;;;;;;11.80;4.10;;;;;;;28.75;33.35;98819.56;5091301;28;20051;-76
2021/09/18 11:36:15;;;;;;;9.70;3.70;;;;;;;29.40;33.01;98922.09;5091529;28;20035;-76
2021/09/18 11:38:43;;;;;;;9.95;3.85;;;;;;;29.45;33.36;98927.41;5091956;28;20035;-77
2021/09/18 11:41:13;;;;;;;9.10;4.18;;;;;;;29.48;32.94;98931.44;5083248;28;20111;-77
2021/09/18 11:43:41;;;;;;;7.22;3.88;;;;;;;29.13;33.22;98854.38;5075127;28;20040;-76
2021/09/18 11:46:08;;;;;;;11.65;5.30;;;;;;;29.10;33.06;98843.03;5075109;28;20539;-76
2021/09/18 11:48:33;;;;;;;11.85;4.82;;;;;;;29.53;32.85;98894.00;5074785;28;20108;-77
2021/09/18 11:51:00;;;;;;;17.17;4.90;;;;;;;29.53;33.22;98902.16;5075084;28;20099;-77
2021/09/18 11:53:26;;;;;;;17.13;5.20;;;;;;;29.48;33.09;98891.44;5074893;28;20034;-77
2021/09/18 11:55:56;;;;;;;10.52;4.28;;;;;;;28.75;33.37;98785.03;5075118;28;20028;-76
2021/09/18 11:58:24;;;;;;;11.68;4.13;;;;;;;29.27;33.93;98874.09;5074994;28;20024;-77
2021/09/18 12:00:52;;;;;;;11.98;4.13;;;;;;;29.23;34.17;98892.97;5075069;28;20028;-76
2021/09/18 12:03:27;;;;;;;9.73;4.38;;;;;;;29.28;34.07;98916.47;5074855;28;20085;-77
2021/09/18 12:06:14;;;;;;;11.98;4.18;;;;;;;29.18;34.20;98892.31;5073326;28;20072;-78
2021/09/18 12:08:44;;;;;;;9.80;3.80;;;;;;;28.97;34.55;98852.09;5074654;28;20515;-76
2021/09/18 12:11:12;;;;;;;12.10;5.13;;;;;;;29.19;34.16;98885.75;5074474;28;20025;-77
2021/09/18 12:13:40;;;;;;;9.98;4.07;;;;;;;29.21;34.77;98887.03;5074430;28;20028;-75
2021/09/18 12:16:06;;;;;;;17.13;5.10;;;;;;;29.21;34.91;98892.47;5074667;28;20028;-77
2021/09/18 12:18:40;;;;;;;14.45;5.63;;;;;;;29.09;36.80;98855.03;5073205;28;20519;-77
2021/09/18 12:21:18;;;;;;;10.75;4.63;;;;;;;29.58;36.88;98893.84;5074306;28;20033;-78
2021/09/18 12:23:49;;;;;;;14.65;5.43;;;;;;;29.75;35.71;98893.06;5074749;28;20024;-75
2021/09/18 12:26:16;;;;;;;;;;;;;;;29.82;35.64;98892.59;5073595;28;20119;-77
2021/09/18 12:28:42;;;;;;;10.65;4.25;;;;;;;29.67;35.37;98844.88;5089916;28;20407;-75
2021/09/18 12:31:18;;;;;;;10.15;4.32;;;;;;;30.14;34.74;98889.38;5074401;28;20031;-75
2021/09/18 12:33:45;;;;;;;13.10;5.53;;;;;;;29.82;34.68;98843.59;5074298;28;20048;-76
2021/09/18 12:36:13;;;;;;;12.25;5.00;;;;;;;30.10;35.15;98887.63;5074192;28;20039;-77
2021/09/18 12:38:41;;;;;;;14.85;5.57;;;;;;;29.50;34.77;98815.75;5074286;28;20108;-76
2021/09/18 12:41:09;;;;;;;10.60;5.00;;;;;;;30.01;35.09;98902.06;5074041;28;20496;-76
2021/09/18 12:43:35;;;;;;;10.23;4.43;;;;;;;30.03;35.06;98913.41;5072884;28;20081;-75
2021/09/18 12:46:08;;;;;;;11.35;5.07;;;;;;;30.07;34.86;98921.75;5073961;28;20482;-77
2021/09/18 12:48:34;;;;;;;13.98;4.85;;;;;;;30.13;35.02;98928.63;5074140;28;20029;-76
2021/09/18 12:51:04;;;;;;;18.00;5.85;;;;;;;30.06;34.80;98917.41;5072905;28;20485;-77
2021/09/18 12:53:42;;;;;;;9.70;5.35;;;;;;;29.64;34.91;98864.56;5073854;28;20032;-77
2021/09/18 12:56:13;;;;;;;16.13;5.32;;;;;;;30.12;34.78;98943.38;5073725;28;20040;-74
2021/09/18 12:58:40;;;;;;;;;;;;;;;29.97;35.14;98946.53;5074118;28;20527;-77
2021/09/18 13:01:08;;;;;;;11.82;6.28;;;;;;;29.79;35.38;98902.19;5073769;28;19919;-77
2021/09/18 13:03:34;;;;;;;11.73;5.18;;;;;;;29.70;35.31;98885.03;5073755;28;20504;-77
2021/09/18 13:06:11;;;;;;;11.90;6.75;;;;;;;29.93;35.23;98924.59;5073837;28;20028;-77
2021/09/18 13:08:44;;;;;;;9.95;4.82;;;;;;;29.45;36.14;98889.34;5071957;28;20063;-77
2021/09/18 13:11:35;;;;;;;13.55;4.80;;;;;;;29.52;36.04;98933.19;5073425;28;20024;-77
2021/09/18 13:14:14;;;;;;;13.40;5.55;;;;;;;29.42;37.00;98942.44;5073117;28;20432;-77
2021/09/18 13:17:08;;;;;;;12.80;5.60;;;;;;;29.07;36.69;98878.22;5071889;28;20478;-77
2021/09/18 13:19:55;;;;;;;13.55;5.15;;;;;;;29.31;38.51;98935.69;5073231;28;20416;-76
2021/09/18 13:22:29;;;;;;;11.70;4.55;;;;;;;29.26;39.72;98967.66;5073270;28;20025;-77
2021/09/18 13:24:57;;;;;;;10.45;5.25;;;;;;;29.07;39.10;99050.25;5073365;28;20028;-77
2021/09/18 13:27:23;;;;;;;102.18;10.73;;;;;;;28.70;36.83;99054.13;5073428;28;20024;-76
2021/09/18 13:29:51;;;;;;;70.22;8.98;;;;;;;28.34;35.74;99064.25;5073358;28;20506;-76
2021/09/18 13:32:18;;;;;;;60.63;6.13;;;;;;;27.84;36.05;99047.91;5072982;28;20060;-77
2021/09/18 13:34:43;;;;;;;23.30;4.32;;;;;;;27.29;36.30;98977.38;5073127;28;20029;-76
2021/09/18 13:37:09;;;;;;;57.45;6.70;;;;;;;27.43;36.82;99023.47;5073099;28;20047;-76
2021/09/18 13:39:35;;;;;;;30.00;4.13;;;;;;;26.79;37.61;98977.22;5071672;28;20104;-75
2021/09/18 13:42:00;;;;;;;37.35;5.88;;;;;;;26.96;38.71;99052.50;5073104;28;20024;-76
2021/09/18 13:44:26;;;;;;;23.45;4.72;;;;;;;26.27;39.87;98965.56;5072966;28;20103;-76
2021/09/18 13:46:52;;;;;;;14.88;3.85;;;;;;;26.48;40.85;99020.22;5072987;28;20036;-76
2021/09/18 13:49:18;;;;;;;14.45;3.50;;;;;;;26.40;41.31;99022.78;5072779;28;20389;-76
2021/09/18 13:51:44;;;;;;;10.00;4.07;;;;;;;26.13;42.21;99010.72;5071486;28;20018;-76
2021/09/18 13:54:09;;;;;;;7.90;3.35;;;;;;;25.67;42.64;98952.91;5071425;28;20025;-76
2021/09/18 13:56:35;;;;;;;14.00;4.90;;;;;;;25.61;43.23;98971.06;5072696;28;20500;-77
2021/09/18 13:59:00;;;;;;;14.65;7.22;;;;;;;25.80;43.93;98973.81;5072675;28;20074;-77
2021/09/18 14:01:26;;;;;;;8.65;3.42;;;;;;;25.71;43.91;98952.03;5071252;28;20025;-76
2021/09/18 14:03:52;;;;;;;7.75;3.85;;;;;;;25.84;44.33;99000.00;5072445;28;20518;-75
2021/09/18 14:06:18;;;;;;;8.10;3.63;;;;;;;25.90;44.21;99003.44;5072448;28;20025;-76
2021/09/18 14:08:44;;;;;;;10.38;5.82;;;;;;;25.56;44.54;98942.22;5072391;28;20032;-75
2021/09/18 14:11:09;;;;;;;11.48;4.80;;;;;;;26.00;44.37;98995.19;5072472;28;20476;-75
2021/09/18 14:13:35;;;;;;;9.25;3.90;;;;;;;25.82;44.10;98971.63;5072230;28;20055;-76
2021/09/18 14:16:01;;;;;;;8.02;3.08;;;;;;;26.19;43.82;99004.13;5072420;28;20025;-76
2021/09/18 14:18:27;;;;;;;4.80;3.38;;;;;;;25.96;43.36;98934.66;5072426;28;20031;-76
2021/09/18 14:20:55;;;;;;;7.60;4.03;;;;;;;26.38;42.50;98979.78;5072227;28;20103;-82
2021/09/18 14:23:24;;;;;;;6.03;3.65;;;;;;;26.51;41.81;98986.34;5072199;28;20048;-75
2021/09/18 14:25:51;;;;;;;6.07;3.70;;;;;;;26.20;41.49;98931.88;5072213;28;20072;-77
2021/09/18 14:28:16;;;;;;;3.70;2.17;;;;;;;26.19;40.65;98911.31;5072054;28;20029;-77
2021/09/18 14:30:42;;;;;;;4.38;1.38;;;;;;;26.52;40.10;98964.38;5072043;28;20553;-76
2021/09/18 14:33:07;;;;;;;2.95;1.60;;;;;;;26.42;40.10;98969.16;5070618;28;20060;-76
2021/09/18 14:35:33;;;;;;;5.50;1.55;;;;;;;26.52;39.45;98983.34;5070558;28;20024;-76
2021/09/18 14:37:58;;;;;;;2.55;1.75;;;;;;;26.10;39.17;98924.72;5071644;28;20013;-76
2021/09/18 14:40:24;;;;;;;2.40;1.10;;;;;;;26.54;38.60;99010.91;5071629;28;20020;-77
2021/09/18 14:42:50;;;;;;;4.32;1.20;;;;;;;26.07;38.58;98925.31;5071740;28;20028;-76
2021/09/18 14:45:15;;;;;;;2.67;1.30;;;;;;;26.53;38.84;99003.88;5070507;28;20036;-76
2021/09/18 14:47:41;;;;;;;2.78;1.20;;;;;;;26.60;38.69;99008.94;5070383;28;20017;-75
2021/09/18 14:50:07;;;;;;;3.95;1.50;;;;;;;26.42;38.32;98967.25;5071900;28;20107;-76
2021/09/18 14:52:32;;;;;;;3.25;2.53;;;;;;;26.75;38.06;99019.50;5071836;28;20025;-76
2021/09/18 14:54:58;;;;;;;4.00;1.77;;;;;;;26.19;37.93;98927.56;5071799;28;20016;-76
2021/09/18 14:57:23;;;;;;;4.15;3.47;;;;;;;26.77;37.89;99013.81;5071626;28;20021;-76
2021/09/18 14:59:49;;;;;;;1.42;0.82;;;;;;;26.39;37.53;98970.56;5071718;28;20028;-77
2021/09/18 15:02:19;;;;;;;1.52;0.70;;;;;;;26.62;37.38;99012.16;5071634;28;20027;-76
2021/09/18 15:04:46;;;;;;;2.55;0.80;;;;;;;26.65;37.61;99014.25;5071669;28;20036;-75
2021/09/18 15:07:11;;;;;;;1.90;1.40;;;;;;;26.68;37.36;99004.75;5071466;28;20099;-75
2021/09/18 15:09:37;;;;;;;1.30;0.73;;;;;;;26.21;37.23;98934.28;5070001;28;20025;-76
2021/09/18 15:12:02;;;;;;;2.70;1.10;;;;;;;26.69;37.05;98992.81;5071295;28;20096;-75
2021/09/18 15:14:28;;;;;;;3.08;1.10;;;;;;;26.33;37.08;98941.97;5070792;28;20028;-75
2021/09/18 15:16:53;;;;;;;26.17;2.67;;;;;;;26.23;37.47;98964.56;5071484;28;20077;-75
2021/09/18 15:19:19;;;;;;;10.95;1.42;;;;;;;26.51;37.60;99014.22;5071328;28;20024;-76
2021/09/18 15:21:45;;;;;;;2.78;0.70;;;;;;;26.32;37.66;99012.59;5071292;28;20466;-75
2021/09/18 15:24:11;;;;;;;2.50;0.80;;;;;;;26.20;37.86;98997.63;5071364;28;20028;-75
2021/09/18 15:26:38;;;;;;;1.83;0.70;;;;;;;26.26;38.33;99030.81;5069958;28;20023;-75
2021/09/18 15:29:03;;;;;;;2.25;0.80;;;;;;;26.19;38.36;99035.78;5071255;28;20169;-75
2021/09/18 15:31:29;;;;;;;2.25;0.70;;;;;;;26.07;38.57;99032.72;5069991;28;20544;-75
2021/09/18 15:33:54;;;;;;;2.40;0.65;;;;;;;25.73;38.86;98989.63;5070935;28;20394;-75
2021/09/18 15:36:20;;;;;;;4.18;0.93;;;;;;;25.68;38.95;99001.31;5071198;28;20020;-76
2021/09/18 15:38:46;;;;;;;2.05;0.90;;;;;;;25.88;39.33;99033.47;5071323;28;20508;-75
2021/09/18 15:41:13;;;;;;;3.97;1.05;;;;;;;25.78;39.65;99039.03;5071349;28;20036;-77
2021/09/18 15:43:41;;;;;;;1.80;0.70;;;;;;;25.81;39.63;99051.16;5071231;28;20024;-76
2021/09/18 15:46:08;;;;;;;1.52;0.80;;;;;;;25.34;39.73;98980.59;5071208;28;20028;-76
2021/09/18 15:48:33;;;;;;;1.75;0.77;;;;;;;25.50;39.68;98996.63;5071014;28;20102;-75
2021/09/18 15:50:59;;;;;;;1.58;0.90;;;;;;;25.83;39.90;99030.84;5070972;28;20484;-77